Terminal Aerodrome Forecast
Issued by NWS

Home | Current Version | Previous Version | Text Only | Print | Product List | Glossary On
Versions: 1 2 3 4 5 6 7 8 9 10 11 12 13
000
FTUS44 KLIX 201728
TAFMCB
TAF
KMCB 201728Z 2018/2118 14012KT P6SM VCSH BKN040
     FM210000 15007KT P6SM BKN060 BKN070
     FM210400 15007KT P6SM SCT080
     FM210900 15005KT 4SM BR SCT045
     FM211000 15004KT 3SM BR BKN015
      TEMPO 2110/2114 1 1/2SM BR BKN010
     FM211600 15007KT P6SM BKN020=

USA.gov is the U.S. government's official web portal to all federal, state and local government web resources and services.